Time;durP1;ratioP1;P1;durP2;ratioP2;P2;SDS_P1;SDS_P2;PMS_P1;PMS_P2;Temp;Humidity;BMP_temperature;BMP_pressure;BME280_temperature;BME280_humidity;BME280_pressure;Samples;Min_cycle;Max_cycle;Signal;HPM_P1;HPM_P2
2021/10/07 00:02:17;;;;;;;3.43;2.13;;;7.80;99.90;7.70;101374.00;;;;4957748;28;87662;-66
2021/10/07 00:04:42;;;;;;;1.67;1.57;;;7.80;99.90;7.70;101389.00;;;;4957009;28;108649;-66
2021/10/07 00:07:08;;;;;;;1.73;1.63;;;7.80;99.90;7.60;101393.00;;;;4939136;28;117639;-65
2021/10/07 00:09:38;;;;;;;3.83;2.20;;;8.00;99.90;7.60;101395.00;;;;4957096;28;88943;-65
2021/10/07 00:12:07;;;;;;;3.27;1.87;;;7.70;99.90;7.50;101397.00;;;;4957355;28;88854;-65
2021/10/07 00:14:33;;;;;;;4.27;1.57;;;7.70;99.90;7.50;101383.00;;;;4974780;28;89985;-65
2021/10/07 00:16:59;;;;;;;2.73;2.37;;;7.60;99.90;7.50;101392.00;;;;4976274;28;116478;-65
2021/10/07 00:19:25;;;;;;;2.17;1.83;;;7.60;99.90;7.40;101391.00;;;;4975179;28;91740;-66
2021/10/07 00:21:51;;;;;;;1.77;1.30;;;7.60;99.90;7.40;101393.00;;;;4957755;28;108618;-65
2021/10/07 00:24:16;;;;;;;1.57;1.47;;;7.50;99.90;7.30;101400.00;;;;4976024;28;108094;-66
2021/10/07 00:26:45;;;;;;;1.60;1.50;;;7.50;99.90;7.30;101397.00;;;;4976579;28;88405;-65
2021/10/07 00:29:36;;;;;;;0.93;0.93;;;7.50;99.90;7.20;101394.00;;;;4958640;28;87499;-65
2021/10/07 00:32:07;;;;;;;1.40;1.30;;;7.40;99.90;7.20;101395.00;;;;4958187;28;87873;-65
2021/10/07 00:37:24;;;;;;;3.43;1.67;;;7.30;99.90;7.10;101401.00;;;;4957787;28;88752;-64
2021/10/07 00:39:50;;;;;;;1.20;1.03;;;7.20;99.90;7.00;101393.00;;;;4956946;28;87803;-65
2021/10/07 00:42:17;;;;;;;1.63;1.33;;;7.20;99.90;7.00;101405.00;;;;4973647;28;88415;-65
2021/10/07 00:44:46;;;;;;;1.50;1.40;;;7.10;99.90;6.90;101401.00;;;;4976727;28;87616;-66
2021/10/07 00:47:15;;;;;;;1.90;1.47;;;7.10;99.90;6.90;101407.00;;;;4972460;28;88117;-65
2021/10/07 00:49:42;;;;;;;1.57;1.43;;;7.10;99.90;6.80;101402.00;;;;4937829;28;90394;-65
2021/10/07 00:52:11;;;;;;;1.67;1.57;;;7.00;99.90;6.80;101407.00;;;;4957126;28;87395;-65
2021/10/07 00:54:37;;;;;;;3.10;2.10;;;6.90;99.90;6.70;101410.00;;;;4957095;28;86793;-66
2021/10/07 00:57:06;;;;;;;3.20;1.87;;;6.90;99.90;6.70;101418.00;;;;4959521;28;88142;-65
2021/10/07 00:59:35;;;;;;;2.27;1.83;;;6.80;99.90;6.60;101412.00;;;;4972744;28;88762;-65
2021/10/07 01:02:07;;;;;;;3.07;2.37;;;6.80;99.90;6.60;101420.00;;;;4958842;28;88771;-65
2021/10/07 01:04:33;;;;;;;1.97;1.80;;;6.70;99.90;6.60;101416.00;;;;4976673;28;87639;-65
2021/10/07 01:06:59;;;;;;;2.47;1.63;;;6.70;99.90;6.50;101424.00;;;;4975494;28;102559;-65
2021/10/07 01:09:28;;;;;;;2.10;1.90;;;6.70;99.90;6.50;101421.00;;;;4964674;28;87850;-65
2021/10/07 01:11:55;;;;;;;3.73;2.00;;;6.70;99.90;6.50;101415.00;;;;4956827;28;87689;-65
2021/10/07 01:14:50;;;;;;;2.03;1.50;;;6.60;99.90;6.40;101412.00;;;;4956791;28;88200;-65
2021/10/07 01:17:22;;;;;;;2.47;1.47;;;6.60;99.90;6.40;101418.00;;;;4956872;28;88610;-66
2021/10/07 01:19:50;;;;;;;2.17;1.87;;;6.60;99.90;6.40;101414.00;;;;4955785;28;100575;-65
2021/10/07 01:22:18;;;;;;;5.20;1.63;;;6.50;99.90;6.40;101416.00;;;;4939831;28;87622;-65
2021/10/07 01:24:44;;;;;;;2.77;1.70;;;6.50;99.90;6.30;101417.00;;;;4967286;28;87888;-65
2021/10/07 01:27:10;;;;;;;2.97;1.53;;;6.50;99.90;6.30;101429.00;;;;4955566;28;89477;-65
2021/10/07 01:29:38;;;;;;;2.23;1.87;;;6.50;99.90;6.30;101424.00;;;;4957416;28;88982;-65
2021/10/07 01:32:05;;;;;;;5.60;1.80;;;6.50;99.90;6.30;101424.00;;;;4956987;28;87390;-65
2021/10/07 01:34:31;;;;;;;4.37;2.03;;;6.40;99.90;6.20;101430.00;;;;4961587;28;87744;-65
2021/10/07 01:36:58;;;;;;;2.13;1.93;;;6.40;99.90;6.20;101433.00;;;;4979314;28;99315;-66
2021/10/07 01:39:25;;;;;;;1.73;1.37;;;6.30;99.90;6.10;101438.00;;;;4957042;28;87964;-65
2021/10/07 01:41:51;;;;;;;2.80;1.83;;;6.40;99.90;6.10;101434.00;;;;4974905;28;87839;-65
2021/10/07 01:44:20;;;;;;;2.17;1.90;;;6.30;99.90;6.10;101442.00;;;;4957414;28;87074;-65
2021/10/07 01:46:46;;;;;;;2.30;1.80;;;6.20;99.90;6.00;101441.00;;;;4959920;28;88945;-66
2021/10/07 01:49:12;;;;;;;1.70;1.60;;;6.20;99.90;6.00;101434.00;;;;4956516;28;88111;-65
2021/10/07 01:51:38;;;;;;;3.03;1.73;;;6.20;99.90;6.00;101435.00;;;;4955959;28;88839;-65
2021/10/07 01:54:05;;;;;;;1.77;1.67;;;6.20;99.90;6.00;101443.00;;;;4956295;28;89202;-65
2021/10/07 01:56:32;;;;;;;3.47;2.03;;;6.10;99.90;6.00;101451.00;;;;4955614;28;91321;-65
2021/10/07 01:58:59;;;;;;;1.43;1.30;;;6.10;99.90;5.90;101438.00;;;;4955186;28;103066;-65
2021/10/07 02:01:25;;;;;;;3.63;1.93;;;6.10;99.90;5.90;101431.00;;;;4957373;28;87892;-65
2021/10/07 02:03:51;;;;;;;1.67;1.57;;;6.10;99.90;5.90;101445.00;;;;4957803;28;87660;-66
2021/10/07 02:06:17;;;;;;;2.87;1.70;;;6.00;99.90;5.80;101436.00;;;;4975010;28;88790;-65
2021/10/07 02:08:43;;;;;;;2.00;1.80;;;6.00;99.90;5.80;101438.00;;;;4975531;28;88324;-65
2021/10/07 02:11:10;;;;;;;2.10;1.77;;;6.00;99.90;5.70;101443.00;;;;4968789;28;87902;-65
2021/10/07 02:13:36;;;;;;;2.73;1.80;;;5.90;99.90;5.70;101444.00;;;;4975752;28;87895;-65
2021/10/07 02:16:02;;;;;;;2.60;1.90;;;5.90;99.90;5.70;101448.00;;;;4974690;28;89166;-65
2021/10/07 02:18:28;;;;;;;2.87;1.80;;;5.90;99.90;5.70;101432.00;;;;4956863;28;89150;-65
2021/10/07 02:20:54;;;;;;;3.60;1.83;;;5.90;99.90;5.70;101450.00;;;;4977835;28;87885;-68
2021/10/07 02:23:20;;;;;;;4.83;1.70;;;5.80;99.90;5.60;101445.00;;;;4965177;28;94892;-65
2021/10/07 02:25:47;;;;;;;2.10;1.47;;;5.80;99.90;5.60;101449.00;;;;4959780;28;97664;-66
2021/10/07 02:28:13;;;;;;;1.53;1.43;;;5.80;99.90;5.60;101451.00;;;;4969606;28;93197;-65
2021/10/07 02:30:40;;;;;;;2.30;1.43;;;5.80;99.90;5.60;101446.00;;;;4959128;28;87825;-66
2021/10/07 02:33:07;;;;;;;3.80;2.00;;;5.80;99.90;5.60;101458.00;;;;4972119;28;87036;-65
2021/10/07 02:35:33;;;;;;;1.63;1.53;;;5.70;99.90;5.50;101464.00;;;;4978601;28;97816;-65
2021/10/07 02:37:58;;;;;;;1.90;1.70;;;5.70;99.90;5.50;101460.00;;;;4978763;28;87900;-65
2021/10/07 02:40:24;;;;;;;2.40;2.20;;;5.70;99.90;5.50;101462.00;;;;4965941;28;110725;-65
2021/10/07 02:42:50;;;;;;;2.27;2.07;;;5.70;99.90;5.50;101458.00;;;;4959226;28;87877;-66
2021/10/07 02:45:17;;;;;;;4.63;1.73;;;5.70;99.90;5.50;101473.00;;;;4958648;28;88194;-66
2021/10/07 02:47:43;;;;;;;5.17;2.53;;;5.70;99.90;5.50;101474.00;;;;4958839;28;93986;-66
2021/10/07 02:50:10;;;;;;;1.67;1.57;;;5.70;99.90;5.40;101485.00;;;;4958300;28;93400;-65
2021/10/07 02:52:37;;;;;;;2.07;1.83;;;5.60;99.90;5.40;101478.00;;;;4969357;28;87955;-66
2021/10/07 02:55:04;;;;;;;4.80;2.60;;;5.60;99.90;5.40;101494.00;;;;4941485;28;116989;-65
2021/10/07 02:57:30;;;;;;;1.73;1.63;;;5.60;99.90;5.40;101489.00;;;;4972528;28;89065;-65
2021/10/07 02:59:55;;;;;;;1.73;1.53;;;5.50;99.90;5.40;101487.00;;;;4945018;28;110345;-65
2021/10/07 03:02:21;;;;;;;3.20;2.10;;;5.60;99.90;5.40;101492.00;;;;4957731;28;108651;-65
2021/10/07 03:04:49;;;;;;;2.17;1.97;;;5.50;99.90;5.30;101488.00;;;;4957462;28;89865;-66
2021/10/07 03:07:14;;;;;;;6.47;2.13;;;5.50;99.90;5.30;101498.00;;;;4940475;28;88741;-65
2021/10/07 03:09:40;;;;;;;2.47;2.27;;;5.70;99.90;5.30;101505.00;;;;4958643;28;87742;-65
2021/10/07 03:12:07;;;;;;;2.10;1.50;;;5.50;99.90;5.20;101506.00;;;;4932856;28;91725;-65
2021/10/07 03:14:33;;;;;;;1.97;1.70;;;5.50;99.90;5.20;101509.00;;;;4957016;28;93427;-66
2021/10/07 03:16:59;;;;;;;1.87;1.50;;;5.70;99.90;5.10;101503.00;;;;4939797;28;88008;-65
2021/10/07 03:19:26;;;;;;;2.17;1.97;;;5.30;99.90;5.10;101507.00;;;;4958058;28;89972;-64
2021/10/07 03:21:51;;;;;;;4.17;2.40;;;5.30;99.90;5.10;101504.00;;;;4939924;28;109031;-65
2021/10/07 03:24:17;;;;;;;6.10;2.00;;;5.30;99.90;5.10;101509.00;;;;4956901;28;117000;-65
2021/10/07 03:26:43;;;;;;;3.73;2.07;;;5.30;99.90;5.00;101502.00;;;;4967177;28;98334;-65
2021/10/07 03:29:08;;;;;;;2.97;1.90;;;5.20;99.90;5.00;101516.00;;;;4964480;28;110787;-65
2021/10/07 03:31:34;;;;;;;2.80;1.83;;;5.20;99.90;4.90;101508.00;;;;4976176;28;108241;-65
2021/10/07 03:34:00;;;;;;;3.10;1.90;;;5.20;99.90;4.90;101516.00;;;;4975731;28;117801;-65
2021/10/07 03:36:26;;;;;;;3.87;2.20;;;5.10;99.90;5.00;101522.00;;;;4977741;28;88526;-66
2021/10/07 03:38:52;;;;;;;2.07;1.87;;;5.10;99.90;5.00;101533.00;;;;4977338;28;88666;-65
2021/10/07 03:41:17;;;;;;;2.77;1.97;;;5.10;99.90;4.90;101532.00;;;;4977827;28;103429;-66
2021/10/07 03:43:43;;;;;;;2.00;1.83;;;5.10;99.90;5.00;101541.00;;;;4977359;28;94290;-65
2021/10/07 03:46:09;;;;;;;2.20;1.73;;;5.20;99.90;4.90;101529.00;;;;4977185;28;117807;-65
2021/10/07 03:48:35;;;;;;;3.30;2.17;;;5.10;99.90;4.90;101534.00;;;;4977846;28;87903;-65
2021/10/07 03:51:00;;;;;;;4.57;1.90;;;5.10;99.90;4.90;101536.00;;;;4977160;28;108849;-65
2021/10/07 03:53:27;;;;;;;5.83;2.43;;;5.10;99.90;4.90;101544.00;;;;4976018;28;118906;-65
2021/10/07 03:55:54;;;;;;;1.63;1.47;;;5.10;99.90;4.90;101551.00;;;;4969142;28;89743;-65
2021/10/07 03:58:20;;;;;;;3.40;1.83;;;5.10;99.90;4.80;101544.00;;;;4958882;28;89269;-65
2021/10/07 04:00:45;;;;;;;2.30;1.97;;;5.00;99.90;4.80;101547.00;;;;4956472;28;109479;-65
2021/10/07 04:03:11;;;;;;;4.37;1.93;;;5.00;99.90;4.80;101543.00;;;;4974034;28;88020;-65
2021/10/07 04:05:37;;;;;;;2.73;1.90;;;5.00;99.90;4.70;101547.00;;;;4976309;28;118100;-65
2021/10/07 04:08:04;;;;;;;2.10;1.90;;;5.00;99.90;4.70;101559.00;;;;4976541;28;102615;-65
2021/10/07 04:10:31;;;;;;;1.77;1.67;;;4.90;99.90;4.70;101557.00;;;;4978131;28;86794;-65
2021/10/07 04:12:57;;;;;;;1.67;1.40;;;4.90;99.90;4.70;101560.00;;;;4977391;28;87690;-66
2021/10/07 04:15:23;;;;;;;1.37;1.27;;;4.90;99.90;4.70;101556.00;;;;4977385;28;101583;-66
2021/10/07 04:17:49;;;;;;;2.00;1.33;;;4.90;99.90;4.70;101558.00;;;;4976347;28;89409;-66
2021/10/07 04:20:14;;;;;;;6.37;2.00;;;4.90;99.90;4.70;101561.00;;;;4976349;28;108367;-65
2021/10/07 04:22:41;;;;;;;1.23;1.23;;;4.90;99.90;4.60;101546.00;;;;4975709;28;118613;-66
2021/10/07 04:25:07;;;;;;;2.07;1.80;;;4.90;99.90;4.60;101560.00;;;;4938285;28;87977;-66
2021/10/07 04:27:33;;;;;;;1.97;1.47;;;4.90;99.90;4.60;101562.00;;;;4957344;28;87769;-66
2021/10/07 04:30:00;;;;;;;2.67;1.97;;;4.80;99.90;4.60;101563.00;;;;4957752;28;109101;-66
2021/10/07 04:32:26;;;;;;;3.87;1.60;;;4.80;99.90;4.50;101565.00;;;;4943302;28;101428;-66
2021/10/07 04:34:52;;;;;;;2.00;1.80;;;4.80;99.90;4.50;101556.00;;;;4966683;28;116270;-66
2021/10/07 04:37:18;;;;;;;2.30;1.73;;;4.80;99.90;4.50;101571.00;;;;4957514;28;91832;-66
2021/10/07 04:39:43;;;;;;;2.70;2.07;;;4.70;99.90;4.50;101572.00;;;;4956987;28;87984;-66
2021/10/07 04:42:09;;;;;;;1.93;1.73;;;4.70;99.90;4.50;101566.00;;;;4958378;28;118649;-66
2021/10/07 04:44:35;;;;;;;2.50;1.70;;;4.70;99.90;4.40;101571.00;;;;4975818;28;118373;-66
2021/10/07 04:47:00;;;;;;;3.07;1.60;;;4.70;99.90;4.40;101582.00;;;;4975832;28;87804;-65
2021/10/07 04:49:26;;;;;;;2.70;1.93;;;4.60;99.90;4.40;101574.00;;;;4975636;28;109042;-66
2021/10/07 04:51:52;;;;;;;2.10;1.70;;;4.60;99.90;4.40;101584.00;;;;4965893;28;88409;-66
2021/10/07 04:54:17;;;;;;;2.03;1.70;;;4.60;99.90;4.30;101584.00;;;;4956181;28;87890;-66
2021/10/07 04:56:43;;;;;;;3.20;2.13;;;4.60;99.90;4.30;101595.00;;;;4955315;28;110244;-66
2021/10/07 04:59:09;;;;;;;1.90;1.70;;;4.60;99.90;4.30;101589.00;;;;4975004;28;108282;-67
2021/10/07 05:01:35;;;;;;;1.97;1.60;;;4.50;99.90;4.30;101589.00;;;;4956572;28;112492;-65
2021/10/07 05:04:02;;;;;;;2.97;1.67;;;4.50;99.90;4.30;101590.00;;;;4973411;28;117766;-66
2021/10/07 05:06:29;;;;;;;2.67;1.70;;;4.50;99.90;4.30;101592.00;;;;4976102;28;88739;-66
2021/10/07 05:08:56;;;;;;;1.73;1.63;;;4.50;99.90;4.20;101597.00;;;;4975893;28;87884;-65
2021/10/07 05:11:22;;;;;;;4.23;2.13;;;4.50;99.90;4.20;101606.00;;;;4975771;28;101590;-66
2021/10/07 05:13:47;;;;;;;3.20;2.43;;;4.50;99.90;4.10;101620.00;;;;4973888;28;100498;-65
2021/10/07 05:16:14;;;;;;;2.23;1.97;;;4.40;99.90;4.10;101621.00;;;;4974669;28;111598;-66
2021/10/07 05:18:40;;;;;;;2.17;1.70;;;4.30;99.90;4.10;101616.00;;;;4938500;28;87810;-65
2021/10/07 05:21:06;;;;;;;2.97;1.83;;;4.30;99.90;4.10;101612.00;;;;4956476;28;88811;-65
2021/10/07 05:23:33;;;;;;;4.50;2.20;;;4.30;99.90;4.10;101609.00;;;;4955921;28;117453;-65
2021/10/07 05:26:00;;;;;;;1.73;1.57;;;4.50;99.90;4.10;101624.00;;;;4956125;28;87773;-66
2021/10/07 05:28:26;;;;;;;2.57;2.00;;;4.30;99.90;4.10;101624.00;;;;4956145;28;92309;-66
2021/10/07 05:30:52;;;;;;;2.37;2.13;;;4.40;99.90;4.10;101618.00;;;;4956609;28;99252;-65
2021/10/07 05:33:20;;;;;;;4.73;2.10;;;4.30;99.90;4.10;101622.00;;;;4955950;28;95779;-65
2021/10/07 05:35:46;;;;;;;3.93;2.30;;;4.30;99.90;4.10;101606.00;;;;4957353;28;87746;-65
2021/10/07 05:38:13;;;;;;;2.40;1.67;;;4.40;99.90;4.10;101628.00;;;;4973039;28;109904;-65
2021/10/07 05:40:39;;;;;;;5.10;2.23;;;4.40;99.90;4.10;101627.00;;;;4975730;28;87886;-65
2021/10/07 05:43:05;;;;;;;4.63;2.13;;;4.40;99.90;4.20;101628.00;;;;4974350;28;116810;-65
2021/10/07 05:45:30;;;;;;;2.93;2.53;;;4.40;99.90;4.30;101628.00;;;;4961914;28;111488;-65
2021/10/07 05:47:56;;;;;;;2.80;2.50;;;4.50;99.90;4.40;101632.00;;;;4955986;28;109284;-65
2021/10/07 05:50:22;;;;;;;2.47;2.20;;;4.60;99.90;4.60;101635.00;;;;4954939;28;108019;-65
2021/10/07 05:52:47;;;;;;;3.27;2.60;;;4.70;99.90;4.70;101635.00;;;;4955031;28;117226;-65
2021/10/07 05:55:13;;;;;;;4.30;2.77;;;4.80;99.90;4.90;101641.00;;;;4939467;28;91433;-65
2021/10/07 05:57:39;;;;;;;3.83;2.73;;;5.00;99.90;5.00;101635.00;;;;4959397;28;109305;-66
2021/10/07 06:00:08;;;;;;;2.40;2.20;;;5.10;99.90;5.10;101643.00;;;;4966280;28;94914;-66
2021/10/07 06:02:35;;;;;;;4.27;2.40;;;5.20;99.90;5.30;101653.00;;;;4955813;28;89888;-65
2021/10/07 06:05:01;;;;;;;2.67;2.30;;;5.40;99.90;5.50;101645.00;;;;4962722;28;87683;-65
2021/10/07 06:07:27;;;;;;;3.07;2.77;;;5.60;99.90;5.70;101666.00;;;;4960647;28;87809;-66
2021/10/07 06:09:52;;;;;;;5.10;3.03;;;5.80;99.90;5.90;101659.00;;;;4978019;28;113982;-66
2021/10/07 06:12:18;;;;;;;2.53;2.33;;;6.00;99.90;6.10;101657.00;;;;4973136;28;106792;-66
2021/10/07 06:14:44;;;;;;;4.80;2.87;;;6.20;99.90;6.30;101650.00;;;;4958637;28;109120;-66
2021/10/07 06:17:10;;;;;;;3.17;2.27;;;6.40;99.90;6.60;101664.00;;;;4958884;28;110275;-66
2021/10/07 06:19:40;;;;;;;4.17;2.40;;;6.60;99.90;6.80;101671.00;;;;4959579;28;88755;-65
2021/10/07 06:22:06;;;;;;;3.33;2.97;;;6.90;99.90;7.10;101669.00;;;;4959883;28;89934;-65
2021/10/07 06:24:32;;;;;;;9.80;3.13;;;7.10;99.90;7.30;101673.00;;;;4940463;28;87805;-66
2021/10/07 06:26:59;;;;;;;2.70;2.50;;;7.30;99.90;7.50;101681.00;;;;4959977;28;107778;-65
2021/10/07 06:29:25;;;;;;;3.17;2.57;;;7.50;99.90;7.70;101682.00;;;;4961391;28;87979;-66
2021/10/07 06:31:50;;;;;;;7.63;3.60;;;7.80;99.90;8.00;101684.00;;;;4941331;28;88343;-66
2021/10/07 06:34:16;;;;;;;4.17;2.63;;;8.00;99.90;8.30;101680.00;;;;4958090;28;110534;-65
2021/10/07 06:36:42;;;;;;;4.50;2.80;;;8.30;99.90;8.50;101686.00;;;;4971205;28;86877;-65
2021/10/07 06:39:08;;;;;;;3.60;2.70;;;8.50;99.90;8.80;101698.00;;;;4977033;28;96357;-65
2021/10/07 06:41:34;;;;;;;3.10;2.67;;;8.80;99.90;9.00;101696.00;;;;4962434;28;88908;-65
2021/10/07 06:44:00;;;;;;;2.43;2.20;;;9.00;99.90;9.20;101685.00;;;;4977232;28;88617;-65
2021/10/07 06:46:27;;;;;;;2.50;2.30;;;9.20;99.90;9.40;101699.00;;;;4978729;28;87946;-65
2021/10/07 06:48:55;;;;;;;3.17;2.10;;;9.50;99.90;9.70;101701.00;;;;4978266;28;89115;-65
2021/10/07 06:51:25;;;;;;;3.10;2.03;;;9.60;99.90;10.00;101705.00;;;;4972067;28;87760;-65
2021/10/07 06:53:56;;;;;;;4.03;1.97;;;9.90;99.90;10.20;101694.00;;;;4958648;28;87658;-65
2021/10/07 06:56:23;;;;;;;2.17;1.87;;;10.20;99.90;10.60;101704.00;;;;4958528;28;87716;-65
2021/10/07 06:58:52;;;;;;;1.87;1.60;;;10.50;99.90;10.80;101702.00;;;;4974988;28;101446;-65
2021/10/07 07:01:26;;;;;;;3.03;1.80;;;10.80;99.90;11.10;101701.00;;;;4963411;28;89075;-65
2021/10/07 07:03:53;;;;;;;4.03;2.00;;;11.00;99.90;11.30;101706.00;;;;4958602;28;88347;-65
2021/10/07 07:06:20;;;;;;;1.70;1.60;;;11.10;99.90;11.60;101713.00;;;;4958024;28;87425;-65
2021/10/07 07:08:46;;;;;;;3.73;1.77;;;11.50;99.90;11.80;101728.00;;;;4962836;28;89775;-65
2021/10/07 07:11:12;;;;;;;2.80;1.93;;;11.80;99.90;12.10;101727.00;;;;4957783;28;119278;-65
2021/10/07 07:13:38;;;;;;;2.13;1.93;;;12.00;99.90;12.50;101743.00;;;;4977950;28;88223;-66
2021/10/07 07:16:04;;;;;;;3.40;1.70;;;12.40;99.90;12.90;101731.00;;;;4977758;28;99868;-66
2021/10/07 07:18:30;;;;;;;2.10;1.90;;;12.70;99.90;13.20;101741.00;;;;4975418;28;101752;-66
2021/10/07 07:20:55;;;;;;;2.93;1.53;;;13.00;99.90;13.40;101744.00;;;;4958201;28;109408;-65
2021/10/07 07:23:21;;;;;;;8.23;1.37;;;13.30;99.90;13.70;101751.00;;;;4977070;28;110567;-65
2021/10/07 07:25:47;;;;;;;1.53;1.33;;;13.50;99.90;13.90;101751.00;;;;4977116;28;109530;-66
2021/10/07 07:28:13;;;;;;;1.60;1.50;;;13.80;99.90;14.20;101754.00;;;;4974985;28;118651;-65
2021/10/07 07:30:39;;;;;;;5.30;1.60;;;14.10;99.90;14.50;101758.00;;;;4965028;28;88111;-65
2021/10/07 07:33:05;;;;;;;2.40;1.57;;;14.40;99.90;14.80;101749.00;;;;4958587;28;88533;-64
2021/10/07 07:35:32;;;;;;;1.63;1.53;;;14.70;99.90;15.20;101753.00;;;;4958332;28;87766;-66
2021/10/07 07:37:59;;;;;;;1.90;1.60;;;15.00;99.90;15.40;101749.00;;;;4973145;28;88001;-66
2021/10/07 07:40:26;;;;;;;5.47;1.63;;;15.30;99.90;15.70;101757.00;;;;4969162;28;88515;-66
2021/10/07 07:42:52;;;;;;;2.60;1.30;;;15.60;99.90;15.90;101760.00;;;;4958373;28;88091;-66
2021/10/07 07:45:18;;;;;;;2.25;1.30;;;15.80;99.90;16.20;101771.00;;;;4977768;28;87718;-65
2021/10/07 07:47:44;;;;;;;1.60;1.25;;;16.10;99.90;16.50;101769.00;;;;4959041;28;96813;-65
2021/10/07 07:50:12;;;;;;;4.15;1.50;;;16.30;99.90;16.70;101778.00;;;;4977503;28;89101;-66
2021/10/07 07:52:39;;;;;;;1.52;1.23;;;16.60;99.90;16.90;101771.00;;;;4978276;28;87698;-65
2021/10/07 07:55:06;;;;;;;1.42;1.33;;;16.80;99.90;17.10;101772.00;;;;4976988;28;87717;-65
2021/10/07 07:57:33;;;;;;;1.85;1.65;;;17.00;99.90;17.30;101778.00;;;;4976674;28;100886;-66
2021/10/07 07:59:58;;;;;;;4.00;1.75;;;17.10;99.90;17.40;101782.00;;;;4976837;28;95162;-66
2021/10/07 08:02:24;;;;;;;1.95;1.40;;;17.30;99.90;17.60;101774.00;;;;4974870;28;109774;-65
2021/10/07 08:04:51;;;;;;;2.67;1.98;;;17.50;99.10;17.70;101784.00;;;;4976307;28;108398;-66
2021/10/07 08:07:17;;;;;;;3.33;1.48;;;17.60;98.10;17.90;101791.00;;;;4977701;28;88437;-65
2021/10/07 08:09:46;;;;;;;3.08;1.48;;;17.80;97.00;18.10;101790.00;;;;4976987;28;93488;-65
2021/10/07 08:12:13;;;;;;;3.72;1.35;;;18.00;96.40;18.20;101797.00;;;;4977826;28;87854;-65
2021/10/07 08:14:44;;;;;;;3.97;1.90;;;18.10;95.30;18.30;101793.00;;;;4977353;28;87158;-65
2021/10/07 08:17:11;;;;;;;2.30;1.45;;;18.30;94.20;18.40;101804.00;;;;4976272;28;89408;-66
2021/10/07 08:19:37;;;;;;;1.65;1.42;;;18.20;93.60;18.50;101815.00;;;;4977247;28;88339;-66
2021/10/07 08:22:04;;;;;;;1.73;1.50;;;18.40;93.00;18.60;101812.00;;;;4976641;28;95056;-65
2021/10/07 08:24:32;;;;;;;4.80;2.13;;;18.50;92.70;18.80;101810.00;;;;4977132;28;88262;-65
2021/10/07 08:27:02;;;;;;;1.63;1.52;;;18.70;92.20;18.90;101821.00;;;;4976507;28;88005;-66
2021/10/07 08:29:27;;;;;;;1.88;1.73;;;18.80;90.80;19.10;101823.00;;;;4976838;28;88144;-69
2021/10/07 08:31:53;;;;;;;1.30;1.20;;;18.90;90.20;19.10;101818.00;;;;4959043;28;90758;-69
2021/10/07 08:34:19;;;;;;;3.60;1.50;;;19.20;88.00;19.20;101826.00;;;;4976623;28;87903;-69
2021/10/07 08:36:46;;;;;;;4.72;1.42;;;19.10;88.00;19.30;101822.00;;;;4975709;28;117729;-71
2021/10/07 08:39:15;;;;;;;1.48;1.38;;;19.20;88.00;19.50;101820.00;;;;4958571;28;87945;-69
2021/10/07 08:41:45;;;;;;;1.58;1.48;;;19.30;86.90;19.70;101816.00;;;;4958354;28;87849;-69
2021/10/07 08:44:12;;;;;;;3.05;1.70;;;19.50;85.90;20.00;101827.00;;;;4958377;28;88063;-69
2021/10/07 08:46:40;;;;;;;2.58;1.25;;;20.20;85.00;20.20;101826.00;;;;4957555;28;96237;-70
2021/10/07 08:49:07;;;;;;;1.38;1.27;;;20.00;83.10;20.50;101820.00;;;;4977297;28;89479;-69
2021/10/07 08:51:33;;;;;;;0.95;0.95;;;20.20;82.00;20.70;101813.00;;;;4976922;28;87704;-69
2021/10/07 08:53:59;;;;;;;1.92;1.70;;;20.40;80.90;21.00;101804.00;;;;4958837;28;87337;-69
2021/10/07 08:56:25;;;;;;;4.15;1.90;;;20.70;79.20;21.20;101812.00;;;;4956945;28;116757;-69
2021/10/07 08:58:52;;;;;;;3.03;1.48;;;20.90;77.80;21.40;101816.00;;;;4956308;28;88838;-69
2021/10/07 09:01:44;;;;;;;1.80;1.17;;;21.10;76.30;21.50;101814.00;;;;4956633;28;87791;-69
2021/10/07 09:04:28;;;;;;;1.70;0.90;;;21.30;75.30;21.80;101823.00;;;;4949822;28;87266;-69
2021/10/07 09:07:02;;;;;;;2.50;1.23;;;21.40;73.90;22.00;101826.00;;;;4958239;28;88015;-71
2021/10/07 09:09:29;;;;;;;2.20;1.13;;;21.70;72.90;22.20;101814.00;;;;4976095;28;87992;-70
2021/10/07 09:12:01;;;;;;;3.15;1.45;;;21.90;71.90;22.40;101819.00;;;;4970333;28;88641;-69
2021/10/07 09:14:45;;;;;;;3.13;1.02;;;22.10;70.90;22.50;101817.00;;;;4974921;28;87656;-69
2021/10/07 09:17:13;;;;;;;1.80;1.63;;;22.30;69.20;22.70;101823.00;;;;4964224;28;89215;-69
2021/10/07 09:19:44;;;;;;;0.98;0.88;;;22.40;68.50;22.90;101815.00;;;;4963539;28;87799;-69
2021/10/07 09:22:20;;;;;;;2.13;1.45;;;22.50;67.10;23.20;101812.00;;;;4975972;28;87823;-70
2021/10/07 09:24:52;;;;;;;1.25;1.15;;;22.80;65.80;23.40;101816.00;;;;4957352;28;88100;-69
2021/10/07 09:27:29;;;;;;;3.85;1.55;;;23.00;65.00;23.60;101810.00;;;;4975520;28;99993;-70
2021/10/07 09:30:03;;;;;;;2.25;1.15;;;23.20;64.30;23.80;101820.00;;;;4957513;28;87306;-69
2021/10/07 09:32:30;;;;;;;1.40;1.08;;;23.40;63.40;24.00;101809.00;;;;4957712;28;87972;-69
2021/10/07 09:35:03;;;;;;;2.47;1.10;;;23.70;62.70;24.20;101808.00;;;;4955709;28;87424;-68
2021/10/07 09:37:34;;;;;;;0.57;0.57;;;23.70;61.80;24.40;101804.00;;;;4955768;28;89370;-71
2021/10/07 09:40:17;;;;;;;1.70;1.17;;;23.90;60.40;24.50;101812.00;;;;4937412;28;90436;-71
2021/10/07 09:42:52;;;;;;;1.40;1.15;;;24.10;59.40;24.70;101808.00;;;;4953898;28;87848;-69
2021/10/07 09:45:31;;;;;;;0.70;0.70;;;24.40;58.90;24.90;101815.00;;;;4956238;28;87707;-68
2021/10/07 09:48:04;;;;;;;1.20;0.88;;;24.50;58.00;25.00;101813.00;;;;4936650;28;90221;-69
2021/10/07 09:50:39;;;;;;;0.65;0.47;;;24.60;57.60;25.10;101809.00;;;;4937557;28;87977;-68
2021/10/07 09:53:11;;;;;;;0.65;0.65;;;24.70;56.50;25.20;101811.00;;;;4956148;28;87512;-68
2021/10/07 09:55:48;;;;;;;0.40;0.40;;;24.80;56.40;25.40;101809.00;;;;4956296;28;86936;-70
2021/10/07 09:58:19;;;;;;;1.20;0.90;;;24.90;55.30;25.50;101808.00;;;;4920628;28;94059;-70
2021/10/07 10:00:51;;;;;;;0.90;0.65;;;25.00;55.00;25.60;101811.00;;;;4956050;28;88422;-69
2021/10/07 10:03:18;;;;;;;2.50;0.70;;;25.10;54.90;25.80;101818.00;;;;4969596;28;89013;-69
2021/10/07 10:05:46;;;;;;;1.55;0.52;;;25.30;54.80;25.90;101814.00;;;;4976053;28;87783;-69
2021/10/07 10:08:17;;;;;;;0.57;0.30;;;25.30;54.20;26.10;101824.00;;;;4958668;28;88414;-69
2021/10/07 10:10:46;;;;;;;1.73;0.80;;;25.60;54.10;26.30;101828.00;;;;4954721;28;99401;-69
2021/10/07 10:13:14;;;;;;;0.52;0.52;;;25.70;53.50;26.50;101823.00;;;;4932089;28;87719;-69
2021/10/07 10:15:41;;;;;;;0.38;0.38;;;26.20;53.50;26.70;101816.00;;;;4956619;28;94183;-70
2021/10/07 10:18:12;;;;;;;0.40;0.40;;;26.20;52.70;27.00;101826.00;;;;4971765;28;87633;-69
2021/10/07 10:20:46;;;;;;;0.52;0.52;;;26.40;52.70;27.00;101823.00;;;;4975776;28;88698;-68
2021/10/07 10:23:17;;;;;;;0.52;0.40;;;26.50;51.40;27.00;101819.00;;;;4957388;28;88162;-68
2021/10/07 10:26:08;;;;;;;1.27;0.50;;;26.50;51.10;27.10;101823.00;;;;4957120;28;88041;-69
2021/10/07 10:28:49;;;;;;;0.50;0.50;;;26.60;50.50;27.10;101828.00;;;;4939363;28;88962;-69
2021/10/07 10:31:25;;;;;;;1.05;0.55;;;26.70;50.30;27.00;101826.00;;;;4955648;28;88091;-69
2021/10/07 10:34:20;;;;;;;0.50;0.47;;;26.60;49.40;26.80;101824.00;;;;4956116;28;88288;-69
2021/10/07 10:37:01;;;;;;;0.52;0.50;;;26.40;48.90;26.70;101829.00;;;;4937481;28;87747;-70
2021/10/07 10:39:31;;;;;;;0.70;0.70;;;26.10;47.60;26.30;101825.00;;;;4936495;28;87647;-70
2021/10/07 10:42:22;;;;;;;0.63;0.45;;;25.70;48.20;25.90;101833.00;;;;4945032;28;87897;-68
2021/10/07 10:45:02;;;;;;;2.63;0.60;;;25.50;48.00;25.60;101837.00;;;;4952543;28;89092;-68
2021/10/07 10:47:29;;;;;;;0.50;0.50;;;25.20;48.40;25.50;101834.00;;;;4978976;28;87098;-68
2021/10/07 10:50:03;;;;;;;0.88;0.50;;;25.00;49.60;25.70;101834.00;;;;4978067;28;89538;-69
2021/10/07 10:52:41;;;;;;;0.65;0.65;;;25.20;50.20;26.10;101841.00;;;;4965338;28;89339;-69
2021/10/07 10:55:11;;;;;;;0.80;0.47;;;25.40;50.20;26.40;101845.00;;;;4963422;28;88699;-70
2021/10/07 10:57:44;;;;;;;0.52;0.40;;;25.90;50.30;26.80;101844.00;;;;4979035;28;87853;-70
2021/10/07 11:00:39;;;;;;;0.55;0.45;;;26.00;49.90;27.20;101843.00;;;;4978173;28;89328;-69
2021/10/07 11:03:08;;;;;;;1.02;0.93;;;26.40;49.60;27.60;101846.00;;;;4959299;28;87975;-70